Share

Osby, Sweden

Tangarne (ISMALAND6) Elev 476 ft | 56.64 °N, 14.20 °E | Change Station

Current weather conditions updated 5 minutes ago

Clear
Clear
63.2 °F
Feels Like 63.2 °F
N
3.0
Wind Variable Wind from SE
Sunrise 5:42 AM
Sunset 8:23 PM
Moon Waning Gibbous

Today is forecast to be nearly the same temperature as yesterday. Showers possible early tonight.

Pressure 29.98 in
Visibility 6.2 miles
Clouds
Dew Point 45 °F
Humidity 51%
Rainfall 0.00 in
Snow Depth Not available.
UV 2.1 out of 16
Pollen Not available.
Air Quality Not available.
Flu Activity Not available.
METAR ESMK 210920Z AUTO 14006KT 9999NDV NCD 13/07 Q1015

More Conditions Fewer Conditions

Pressure 29.98 in
Visibility 6.2 miles
Clouds
Dew Point 45 °F
Humidity 51%
Rainfall 0.00 in
Snow Depth Not available.
UV 2.1 out of 16
Pollen Not available.
Air Quality Not available.
Flu Activity Not available.
METAR ESMK 210920Z AUTO 14006KT 9999NDV NCD 13/07 Q1015

More Conditions Fewer Conditions

10-Day Weather Forecast

Almanac

Astronomy

Apr. 21, 2014 Rise Set
Actual Time 5:42 AM CEST 8:23 PM CEST
Civil Twilight 5:00 AM CEST 9:06 PM CEST
Nautical Twilight 4:05 AM CEST 10:01 PM CEST
Astronomical Twilight 2:54 AM CEST 11:15 PM CEST
Moon 1:58 AM CEST 10:32 AM CEST
Length of Visible Light 16h 05m
Length of Day
14h 40m
Tomorrow will be 4m 34s longer.
Waning Gibbous, 61% of the Moon is Illuminated
Today
Waning Gibbous
Apr 22
Last Quarter
Apr 29
New
May 6
First Quarter
May 14
Full

Yesterday's Extremes

Country Highs Country Lows

Community

  • Snowy Robin
    Snowy Robin
  • Sun Pillar and Geese
    Sun Pillar and Geese
  • Showers on the Way
    Showers on the Way
  • Easter Morning Fog
    Easter Morning Fog
  • Easter Dance
    Easter Dance

WunderPhotos

Upload Photos

1,703,579 photos uploaded!

Nearby

Snow Depth

Not available.

Coastal Water Temperatures

Place Temperature
No Stations Reporting

Earthquake Activity

City Distance Mag. Time & Date
No recent earthquake activity has been reported nearby.
Minimum magnitude displayed is 2.5.

Nearby Weather Stations

Station Location Temp. Dew Point Humidity Wind Precip. Elev Updated Type
Tangarne, Dio 63.2 °F 45 °F 51% SE  at  3.0 mph - / hr 476 ft 11:37 AM CEST Normal
Rya, Rya 63.0 °F 46 °F 53% WNW  at  3.1 mph 0.00 in / hr 325 ft 11:42 AM CEST Rapid Fire
Kristianstad, Kristianstad 59.9 °F 49 °F 67% West  at  4.5 mph 0.00 in / hr 33 ft 11:29 AM CEST Normal

Show More Stations Show Fewer Stations

What do you think?

We're not finished. Please let us know what you like, what you don't like, and what you are still missing.